sensor_id;sensor_type;location;lat;lon;timestamp;pressure;altitude;pressure_sealevel;temperature;humidity
59194;BME280;44967;48.598;15.650;2023-12-28T00:01:25;98583.13;;;0.50;88.64
59194;BME280;44967;48.598;15.650;2023-12-28T00:03:51;98588.25;;;0.43;89.27
59194;BME280;44967;48.598;15.650;2023-12-28T00:06:17;98575.38;;;0.53;89.21
59194;BME280;44967;48.598;15.650;2023-12-28T00:08:42;98583.22;;;0.54;88.28
59194;BME280;44967;48.598;15.650;2023-12-28T00:11:08;98589.34;;;0.59;88.66
59194;BME280;44967;48.598;15.650;2023-12-28T00:13:34;98585.94;;;0.63;87.51
59194;BME280;44967;48.598;15.650;2023-12-28T00:16:00;98598.06;;;0.64;87.52
59194;BME280;44967;48.598;15.650;2023-12-28T00:18:26;98603.03;;;0.46;87.11
59194;BME280;44967;48.598;15.650;2023-12-28T00:20:52;98589.09;;;0.41;88.18
59194;BME280;44967;48.598;15.650;2023-12-28T00:23:18;98583.03;;;0.43;88.74
59194;BME280;44967;48.598;15.650;2023-12-28T00:25:46;98575.13;;;0.34;88.15
59194;BME280;44967;48.598;15.650;2023-12-28T00:28:12;98568.22;;;0.36;88.64
59194;BME280;44967;48.598;15.650;2023-12-28T00:30:37;98578.63;;;0.35;87.94
59194;BME280;44967;48.598;15.650;2023-12-28T00:33:03;98573.41;;;0.35;87.70
59194;BME280;44967;48.598;15.650;2023-12-28T00:35:29;98576.69;;;0.22;88.67
59194;BME280;44967;48.598;15.650;2023-12-28T00:37:54;98567.09;;;0.18;88.65
59194;BME280;44967;48.598;15.650;2023-12-28T00:40:20;98573.19;;;0.20;88.34
59194;BME280;44967;48.598;15.650;2023-12-28T00:42:48;98558.22;;;0.04;88.01
59194;BME280;44967;48.598;15.650;2023-12-28T00:45:14;98561.75;;;0.07;88.60
59194;BME280;44967;48.598;15.650;2023-12-28T00:47:39;98560.00;;;0.06;89.07
59194;BME280;44967;48.598;15.650;2023-12-28T00:50:09;98563.44;;;0.05;88.79
59194;BME280;44967;48.598;15.650;2023-12-28T00:52:38;98569.66;;;0.15;88.14
59194;BME280;44967;48.598;15.650;2023-12-28T00:55:04;98561.84;;;0.16;88.32
59194;BME280;44967;48.598;15.650;2023-12-28T00:57:30;98566.03;;;0.04;88.17
59194;BME280;44967;48.598;15.650;2023-12-28T00:59:56;98574.44;;;-0.13;88.71
59194;BME280;44967;48.598;15.650;2023-12-28T01:02:21;98577.75;;;-0.20;89.02
59194;BME280;44967;48.598;15.650;2023-12-28T01:04:48;98583.91;;;-0.15;89.63
59194;BME280;44967;48.598;15.650;2023-12-28T01:07:13;98587.63;;;0.01;89.73
59194;BME280;44967;48.598;15.650;2023-12-28T01:09:39;98586.81;;;0.04;89.00
59194;BME280;44967;48.598;15.650;2023-12-28T01:12:05;98585.09;;;0.06;89.29
59194;BME280;44967;48.598;15.650;2023-12-28T01:14:30;98593.72;;;0.03;88.60
59194;BME280;44967;48.598;15.650;2023-12-28T01:16:56;98586.66;;;-0.06;89.40
59194;BME280;44967;48.598;15.650;2023-12-28T01:19:22;98588.25;;;-0.14;89.01
59194;BME280;44967;48.598;15.650;2023-12-28T01:21:49;98593.47;;;-0.12;89.94
59194;BME280;44967;48.598;15.650;2023-12-28T01:24:15;98582.34;;;-0.04;90.16
59194;BME280;44967;48.598;15.650;2023-12-28T01:26:41;98567.59;;;-0.06;88.98
59194;BME280;44967;48.598;15.650;2023-12-28T01:29:07;98565.06;;;-0.02;88.96
59194;BME280;44967;48.598;15.650;2023-12-28T01:31:32;98565.16;;;0.05;88.63
59194;BME280;44967;48.598;15.650;2023-12-28T01:33:58;98564.13;;;-0.07;87.75
59194;BME280;44967;48.598;15.650;2023-12-28T01:36:24;98557.25;;;-0.05;88.96
59194;BME280;44967;48.598;15.650;2023-12-28T01:38:49;98562.25;;;-0.17;88.27
59194;BME280;44967;48.598;15.650;2023-12-28T01:41:15;98564.00;;;-0.14;88.69
59194;BME280;44967;48.598;15.650;2023-12-28T01:43:42;98552.06;;;-0.03;89.31
59194;BME280;44967;48.598;15.650;2023-12-28T01:46:17;98557.31;;;0.00;88.84
59194;BME280;44967;48.598;15.650;2023-12-28T01:48:45;98562.56;;;0.03;88.66
59194;BME280;44967;48.598;15.650;2023-12-28T01:51:14;98553.06;;;0.07;88.77
59194;BME280;44967;48.598;15.650;2023-12-28T01:53:41;98566.06;;;0.07;89.02
59194;BME280;44967;48.598;15.650;2023-12-28T01:56:07;98571.25;;;0.07;89.12
59194;BME280;44967;48.598;15.650;2023-12-28T01:58:34;98573.81;;;0.04;88.41
59194;BME280;44967;48.598;15.650;2023-12-28T02:01:01;98566.78;;;-0.02;88.64
59194;BME280;44967;48.598;15.650;2023-12-28T02:03:27;98570.03;;;-0.15;88.64
59194;BME280;44967;48.598;15.650;2023-12-28T02:05:54;98570.91;;;-0.15;89.12
59194;BME280;44967;48.598;15.650;2023-12-28T02:08:20;98564.03;;;-0.11;88.88
59194;BME280;44967;48.598;15.650;2023-12-28T02:10:46;98562.47;;;-0.02;89.42
59194;BME280;44967;48.598;15.650;2023-12-28T02:13:13;98580.84;;;0.11;88.79
59194;BME280;44967;48.598;15.650;2023-12-28T02:15:39;98574.03;;;0.20;88.32
59194;BME280;44967;48.598;15.650;2023-12-28T02:18:23;98569.84;;;0.27;89.10
59194;BME280;44967;48.598;15.650;2023-12-28T02:20:49;98562.88;;;0.26;88.56
59194;BME280;44967;48.598;15.650;2023-12-28T02:23:15;98568.81;;;0.17;88.77
59194;BME280;44967;48.598;15.650;2023-12-28T02:25:41;98559.16;;;0.09;88.80
59194;BME280;44967;48.598;15.650;2023-12-28T02:28:08;98559.28;;;0.18;89.08
59194;BME280;44967;48.598;15.650;2023-12-28T02:30:34;98561.94;;;0.19;89.52
59194;BME280;44967;48.598;15.650;2023-12-28T02:35:57;98547.38;;;0.33;89.95
59194;BME280;44967;48.598;15.650;2023-12-28T02:38:25;98555.44;;;0.50;90.06
59194;BME280;44967;48.598;15.650;2023-12-28T02:40:54;98560.56;;;0.45;89.21
59194;BME280;44967;48.598;15.650;2023-12-28T02:43:21;98564.97;;;0.51;89.51
59194;BME280;44967;48.598;15.650;2023-12-28T02:45:47;98552.06;;;0.60;89.46
59194;BME280;44967;48.598;15.650;2023-12-28T02:48:13;98562.38;;;0.53;89.38
59194;BME280;44967;48.598;15.650;2023-12-28T02:50:39;98554.59;;;0.54;90.06
59194;BME280;44967;48.598;15.650;2023-12-28T02:53:05;98558.16;;;0.61;90.18
59194;BME280;44967;48.598;15.650;2023-12-28T02:55:30;98566.84;;;0.61;90.60
59194;BME280;44967;48.598;15.650;2023-12-28T02:57:57;98564.38;;;0.73;91.63
59194;BME280;44967;48.598;15.650;2023-12-28T03:00:26;98551.44;;;0.79;91.64
59194;BME280;44967;48.598;15.650;2023-12-28T03:02:52;98553.19;;;0.80;91.51
59194;BME280;44967;48.598;15.650;2023-12-28T03:05:18;98549.78;;;0.83;91.92
59194;BME280;44967;48.598;15.650;2023-12-28T03:07:44;98543.72;;;0.82;92.31
59194;BME280;44967;48.598;15.650;2023-12-28T03:10:10;98553.19;;;0.80;92.94
59194;BME280;44967;48.598;15.650;2023-12-28T03:12:38;98549.66;;;0.75;91.95
59194;BME280;44967;48.598;15.650;2023-12-28T03:15:05;98548.78;;;0.73;92.67
59194;BME280;44967;48.598;15.650;2023-12-28T03:17:31;98545.38;;;0.77;93.60
59194;BME280;44967;48.598;15.650;2023-12-28T03:19:59;98537.63;;;0.82;93.77
59194;BME280;44967;48.598;15.650;2023-12-28T03:22:25;98554.06;;;0.81;93.84
59194;BME280;44967;48.598;15.650;2023-12-28T03:24:51;98546.25;;;0.78;93.97
59194;BME280;44967;48.598;15.650;2023-12-28T03:27:17;98538.44;;;0.78;94.35
59194;BME280;44967;48.598;15.650;2023-12-28T03:29:43;98545.44;;;0.83;95.18
59194;BME280;44967;48.598;15.650;2023-12-28T03:32:10;98556.03;;;0.99;96.53
59194;BME280;44967;48.598;15.650;2023-12-28T03:34:36;98537.72;;;0.91;95.69
59194;BME280;44967;48.598;15.650;2023-12-28T03:37:02;98556.78;;;0.91;95.91
59194;BME280;44967;48.598;15.650;2023-12-28T03:39:28;98548.25;;;1.02;96.57
59194;BME280;44967;48.598;15.650;2023-12-28T03:41:54;98557.81;;;1.03;96.42
59194;BME280;44967;48.598;15.650;2023-12-28T03:44:20;98537.06;;;1.12;96.15
59194;BME280;44967;48.598;15.650;2023-12-28T03:46:49;98561.34;;;1.09;95.69
59194;BME280;44967;48.598;15.650;2023-12-28T03:49:19;98559.66;;;1.13;96.32
59194;BME280;44967;48.598;15.650;2023-12-28T03:51:45;98565.72;;;1.15;96.38
59194;BME280;44967;48.598;15.650;2023-12-28T03:54:12;98563.13;;;1.13;96.00
59194;BME280;44967;48.598;15.650;2023-12-28T03:56:38;98557.91;;;1.12;96.70
59194;BME280;44967;48.598;15.650;2023-12-28T03:59:06;98559.69;;;1.14;96.64
59194;BME280;44967;48.598;15.650;2023-12-28T04:01:34;98566.63;;;1.17;96.94
59194;BME280;44967;48.598;15.650;2023-12-28T04:04:00;98568.34;;;1.16;96.83
59194;BME280;44967;48.598;15.650;2023-12-28T04:06:26;98571.88;;;1.20;96.48
59194;BME280;44967;48.598;15.650;2023-12-28T04:08:52;98563.22;;;1.24;97.31
59194;BME280;44967;48.598;15.650;2023-12-28T04:11:17;98567.53;;;1.20;96.63
59194;BME280;44967;48.598;15.650;2023-12-28T04:13:43;98572.66;;;1.13;97.38
59194;BME280;44967;48.598;15.650;2023-12-28T04:16:15;98570.03;;;1.10;97.08
59194;BME280;44967;48.598;15.650;2023-12-28T04:18:42;98569.25;;;1.20;97.97
59194;BME280;44967;48.598;15.650;2023-12-28T04:21:08;98577.13;;;1.24;98.33
59194;BME280;44967;48.598;15.650;2023-12-28T04:23:36;98569.25;;;1.20;97.21
59194;BME280;44967;48.598;15.650;2023-12-28T04:26:02;98573.66;;;1.22;97.72
59194;BME280;44967;48.598;15.650;2023-12-28T04:28:28;98576.25;;;1.24;97.54
59194;BME280;44967;48.598;15.650;2023-12-28T04:30:54;98586.72;;;1.28;97.93
59194;BME280;44967;48.598;15.650;2023-12-28T04:33:20;98584.13;;;1.31;98.60
59194;BME280;44967;48.598;15.650;2023-12-28T04:35:45;98574.63;;;1.35;98.99
59194;BME280;44967;48.598;15.650;2023-12-28T04:38:12;98573.81;;;1.37;99.37
59194;BME280;44967;48.598;15.650;2023-12-28T04:40:38;98580.69;;;1.32;98.91
59194;BME280;44967;48.598;15.650;2023-12-28T04:43:04;98589.25;;;1.24;98.72
59194;BME280;44967;48.598;15.650;2023-12-28T04:45:29;98578.06;;;1.32;98.93
59194;BME280;44967;48.598;15.650;2023-12-28T04:47:55;98572.97;;;1.41;99.59
59194;BME280;44967;48.598;15.650;2023-12-28T04:50:21;98583.34;;;1.40;98.63
59194;BME280;44967;48.598;15.650;2023-12-28T04:52:47;98584.97;;;1.30;98.56
59194;BME280;44967;48.598;15.650;2023-12-28T04:55:13;98580.66;;;1.31;99.30
59194;BME280;44967;48.598;15.650;2023-12-28T04:57:41;98578.13;;;1.38;99.12
59194;BME280;44967;48.598;15.650;2023-12-28T05:00:07;98577.31;;;1.44;99.39
59194;BME280;44967;48.598;15.650;2023-12-28T05:02:34;98598.97;;;1.40;99.34
59194;BME280;44967;48.598;15.650;2023-12-28T05:05:00;98586.00;;;1.41;99.06
59194;BME280;44967;48.598;15.650;2023-12-28T05:07:26;98577.31;;;1.41;98.86
59194;BME280;44967;48.598;15.650;2023-12-28T05:09:52;98578.22;;;1.46;98.37
59194;BME280;44967;48.598;15.650;2023-12-28T05:12:17;98576.41;;;1.39;97.92
59194;BME280;44967;48.598;15.650;2023-12-28T05:14:43;98575.56;;;1.41;98.81
59194;BME280;44967;48.598;15.650;2023-12-28T05:17:09;98562.59;;;1.46;98.35
59194;BME280;44967;48.598;15.650;2023-12-28T05:19:34;98580.84;;;1.51;98.49
59194;BME280;44967;48.598;15.650;2023-12-28T05:22:00;98572.22;;;1.55;98.82
59194;BME280;44967;48.598;15.650;2023-12-28T05:24:30;98577.38;;;1.49;98.93
59194;BME280;44967;48.598;15.650;2023-12-28T05:26:55;98571.38;;;1.59;98.59
59194;BME280;44967;48.598;15.650;2023-12-28T05:29:21;98582.69;;;1.58;98.75
59194;BME280;44967;48.598;15.650;2023-12-28T05:31:47;98580.06;;;1.59;99.17
59194;BME280;44967;48.598;15.650;2023-12-28T05:34:13;98582.66;;;1.56;98.69
59194;BME280;44967;48.598;15.650;2023-12-28T05:36:39;98581.72;;;1.50;97.87
59194;BME280;44967;48.598;15.650;2023-12-28T05:39:07;98584.34;;;1.54;98.77
59194;BME280;44967;48.598;15.650;2023-12-28T05:41:35;98588.69;;;1.52;98.11
59194;BME280;44967;48.598;15.650;2023-12-28T05:44:01;98587.84;;;1.53;98.76
59194;BME280;44967;48.598;15.650;2023-12-28T05:46:26;98583.50;;;1.55;99.17
59194;BME280;44967;48.598;15.650;2023-12-28T05:48:52;98597.44;;;1.60;98.61
59194;BME280;44967;48.598;15.650;2023-12-28T05:51:18;98592.16;;;1.54;98.92
59194;BME280;44967;48.598;15.650;2023-12-28T05:53:44;98593.03;;;1.55;98.93
59194;BME280;44967;48.598;15.650;2023-12-28T05:56:10;98598.22;;;1.52;98.75
59194;BME280;44967;48.598;15.650;2023-12-28T05:58:35;98590.44;;;1.53;98.34
59194;BME280;44967;48.598;15.650;2023-12-28T06:01:02;98589.56;;;1.54;98.96
59194;BME280;44967;48.598;15.650;2023-12-28T06:03:31;98600.88;;;1.53;98.93
59194;BME280;44967;48.598;15.650;2023-12-28T06:05:57;98592.22;;;1.57;98.68
59194;BME280;44967;48.598;15.650;2023-12-28T06:08:23;98597.44;;;1.59;98.59
59194;BME280;44967;48.598;15.650;2023-12-28T06:10:49;98597.38;;;1.54;97.99
59194;BME280;44967;48.598;15.650;2023-12-28T06:13:15;98606.06;;;1.53;97.89
59194;BME280;44967;48.598;15.650;2023-12-28T06:15:41;98603.47;;;1.53;97.89
59194;BME280;44967;48.598;15.650;2023-12-28T06:18:06;98596.47;;;1.49;98.13
59194;BME280;44967;48.598;15.650;2023-12-28T06:20:32;98600.00;;;1.56;98.65
59194;BME280;44967;48.598;15.650;2023-12-28T06:22:58;98591.28;;;1.51;98.19
59194;BME280;44967;48.598;15.650;2023-12-28T06:25:24;98594.69;;;1.47;98.44
59194;BME280;44967;48.598;15.650;2023-12-28T06:27:49;98595.63;;;1.50;98.47
59194;BME280;44967;48.598;15.650;2023-12-28T06:30:15;98595.66;;;1.53;98.79
59194;BME280;44967;48.598;15.650;2023-12-28T06:32:41;98594.69;;;1.47;98.65
59194;BME280;44967;48.598;15.650;2023-12-28T06:35:07;98600.00;;;1.53;99.16
59194;BME280;44967;48.598;15.650;2023-12-28T06:37:33;98591.31;;;1.55;99.36
59194;BME280;44967;48.598;15.650;2023-12-28T06:39:59;98593.00;;;1.49;98.96
59194;BME280;44967;48.598;15.650;2023-12-28T06:42:24;98590.44;;;1.53;99.35
59194;BME280;44967;48.598;15.650;2023-12-28T06:44:50;98581.72;;;1.50;99.19
59194;BME280;44967;48.598;15.650;2023-12-28T06:47:16;98600.84;;;1.50;98.84
59194;BME280;44967;48.598;15.650;2023-12-28T06:49:42;98593.00;;;1.49;98.70
59194;BME280;44967;48.598;15.650;2023-12-28T06:52:08;98597.34;;;1.51;98.60
59194;BME280;44967;48.598;15.650;2023-12-28T06:54:33;98600.88;;;1.53;99.19
59194;BME280;44967;48.598;15.650;2023-12-28T06:56:59;98599.94;;;1.48;98.21
59194;BME280;44967;48.598;15.650;2023-12-28T06:59:25;98597.28;;;1.42;98.39
59194;BME280;44967;48.598;15.650;2023-12-28T07:01:51;98580.81;;;1.45;98.81
59194;BME280;44967;48.598;15.650;2023-12-28T07:04:16;98584.28;;;1.47;98.75
59194;BME280;44967;48.598;15.650;2023-12-28T07:06:43;98600.84;;;1.50;98.59
59194;BME280;44967;48.598;15.650;2023-12-28T07:09:08;98614.63;;;1.41;98.13
59194;BME280;44967;48.598;15.650;2023-12-28T07:11:34;98606.81;;;1.43;98.72
59194;BME280;44967;48.598;15.650;2023-12-28T07:13:59;98616.34;;;1.42;98.33
59194;BME280;44967;48.598;15.650;2023-12-28T07:16:25;98628.44;;;1.36;98.60
59194;BME280;44967;48.598;15.650;2023-12-28T07:18:52;98624.16;;;1.41;98.58
59194;BME280;44967;48.598;15.650;2023-12-28T07:21:18;98629.34;;;1.39;98.47
59194;BME280;44967;48.598;15.650;2023-12-28T07:23:43;98629.38;;;1.41;99.25
59194;BME280;44967;48.598;15.650;2023-12-28T07:26:15;98635.50;;;1.46;99.01
59194;BME280;44967;48.598;15.650;2023-12-28T07:28:40;98635.47;;;1.43;98.33
59194;BME280;44967;48.598;15.650;2023-12-28T07:31:09;98644.16;;;1.43;98.90
59194;BME280;44967;48.598;15.650;2023-12-28T07:33:35;98647.66;;;1.46;99.04
59194;BME280;44967;48.598;15.650;2023-12-28T07:36:00;98656.38;;;1.51;98.52
59194;BME280;44967;48.598;15.650;2023-12-28T07:38:28;98659.00;;;1.52;98.42
59194;BME280;44967;48.598;15.650;2023-12-28T07:40:54;98648.66;;;1.60;98.26
59194;BME280;44967;48.598;15.650;2023-12-28T07:43:19;98648.75;;;1.66;98.21
59194;BME280;44967;48.598;15.650;2023-12-28T07:45:45;98653.97;;;1.69;97.79
59194;BME280;44967;48.598;15.650;2023-12-28T07:48:11;98657.94;;;1.35;96.93
59194;BME280;44967;48.598;15.650;2023-12-28T07:50:37;98657.16;;;1.42;97.99
59194;BME280;44967;48.598;15.650;2023-12-28T07:53:02;98665.09;;;1.53;97.87
59194;BME280;44967;48.598;15.650;2023-12-28T07:55:28;98665.97;;;1.55;97.83
59194;BME280;44967;48.598;15.650;2023-12-28T07:57:53;98659.78;;;1.42;96.64
59194;BME280;44967;48.598;15.650;2023-12-28T08:00:19;98652.84;;;1.44;97.32
59194;BME280;44967;48.598;15.650;2023-12-28T08:02:45;98654.59;;;1.45;97.06
59194;BME280;44967;48.598;15.650;2023-12-28T08:05:11;98650.34;;;1.53;97.13
59194;BME280;44967;48.598;15.650;2023-12-28T08:07:37;98646.88;;;1.56;97.48
59194;BME280;44967;48.598;15.650;2023-12-28T08:10:03;98659.97;;;1.60;97.72
59194;BME280;44967;48.598;15.650;2023-12-28T08:12:29;98667.03;;;1.72;97.30
59194;BME280;44967;48.598;15.650;2023-12-28T08:14:55;98665.31;;;1.75;97.43
59194;BME280;44967;48.598;15.650;2023-12-28T08:17:21;98672.06;;;1.54;96.65
59194;BME280;44967;48.598;15.650;2023-12-28T08:19:47;98664.16;;;1.46;96.98
59194;BME280;44967;48.598;15.650;2023-12-28T08:22:13;98660.72;;;1.52;96.62
59194;BME280;44967;48.598;15.650;2023-12-28T08:24:38;98666.66;;;1.40;96.25
59194;BME280;44967;48.598;15.650;2023-12-28T08:27:04;98669.25;;;1.37;96.88
59194;BME280;44967;48.598;15.650;2023-12-28T08:29:30;98668.22;;;1.24;96.86
59194;BME280;44967;48.598;15.650;2023-12-28T08:31:55;98675.28;;;1.33;97.56
59194;BME280;44967;48.598;15.650;2023-12-28T08:34:21;98679.53;;;1.28;96.87
59194;BME280;44967;48.598;15.650;2023-12-28T08:36:47;98674.44;;;1.38;97.55
59194;BME280;44967;48.598;15.650;2023-12-28T08:39:13;98674.66;;;1.54;97.55
59194;BME280;44967;48.598;15.650;2023-12-28T08:41:38;98670.34;;;1.57;96.91
59194;BME280;44967;48.598;15.650;2023-12-28T08:44:05;98677.28;;;1.58;97.48
59194;BME280;44967;48.598;15.650;2023-12-28T08:46:31;98679.88;;;1.58;96.55
59194;BME280;44967;48.598;15.650;2023-12-28T08:48:57;98679.94;;;1.61;96.39
59194;BME280;44967;48.598;15.650;2023-12-28T08:51:23;98676.44;;;1.58;96.16
59194;BME280;44967;48.598;15.650;2023-12-28T08:53:48;98682.50;;;1.60;96.05
59194;BME280;44967;48.598;15.650;2023-12-28T08:56:20;98684.31;;;1.67;96.54
59194;BME280;44967;48.598;15.650;2023-12-28T08:58:47;98679.16;;;1.68;95.52
59194;BME280;44967;48.598;15.650;2023-12-28T09:01:23;98679.91;;;1.60;95.17
59194;BME280;44967;48.598;15.650;2023-12-28T09:03:52;98679.06;;;1.62;95.71
59194;BME280;44967;48.598;15.650;2023-12-28T09:06:19;98680.97;;;1.78;96.01
59194;BME280;44967;48.598;15.650;2023-12-28T09:08:48;98674.06;;;1.82;96.24
59194;BME280;44967;48.598;15.650;2023-12-28T09:11:14;98667.19;;;1.88;95.30
59194;BME280;44967;48.598;15.650;2023-12-28T09:13:40;98680.25;;;1.92;95.79
59194;BME280;44967;48.598;15.650;2023-12-28T09:16:12;98674.19;;;1.93;96.17
59194;BME280;44967;48.598;15.650;2023-12-28T09:18:39;98671.50;;;1.85;95.36
59194;BME280;44967;48.598;15.650;2023-12-28T09:21:05;98674.13;;;1.85;95.57
59194;BME280;44967;48.598;15.650;2023-12-28T09:23:32;98664.66;;;1.96;95.70
59194;BME280;44967;48.598;15.650;2023-12-28T09:26:00;98670.69;;;1.90;94.94
59194;BME280;44967;48.598;15.650;2023-12-28T09:28:26;98667.94;;;1.78;93.96
59194;BME280;44967;48.598;15.650;2023-12-28T09:30:52;98667.06;;;1.76;94.39
59194;BME280;44967;48.598;15.650;2023-12-28T09:33:18;98673.09;;;1.69;94.35
59194;BME280;44967;48.598;15.650;2023-12-28T09:35:43;98667.69;;;1.53;94.92
59194;BME280;44967;48.598;15.650;2023-12-28T09:38:09;98667.84;;;1.68;95.43
59194;BME280;44967;48.598;15.650;2023-12-28T09:40:35;98661.09;;;1.88;95.70
59194;BME280;44967;48.598;15.650;2023-12-28T09:45:35;98654.28;;;2.01;94.05
59194;BME280;44967;48.598;15.650;2023-12-28T09:48:01;98654.31;;;2.04;94.21
59194;BME280;44967;48.598;15.650;2023-12-28T09:50:28;98655.06;;;1.92;93.69
59194;BME280;44967;48.598;15.650;2023-12-28T09:52:54;98644.69;;;1.94;94.66
59194;BME280;44967;48.598;15.650;2023-12-28T09:55:20;98646.34;;;1.85;93.97
59194;BME280;44967;48.598;15.650;2023-12-28T09:57:46;98654.28;;;2.01;94.67
59194;BME280;44967;48.598;15.650;2023-12-28T10:00:12;98637.88;;;2.12;94.23
59194;BME280;44967;48.598;15.650;2023-12-28T10:02:43;98637.97;;;2.23;94.56
59194;BME280;44967;48.598;15.650;2023-12-28T10:05:14;98631.94;;;2.28;93.76
59194;BME280;44967;48.598;15.650;2023-12-28T10:07:41;98631.97;;;2.34;94.18
59194;BME280;44967;48.598;15.650;2023-12-28T10:10:07;98634.59;;;2.39;94.17
59194;BME280;44967;48.598;15.650;2023-12-28T10:12:34;98626.63;;;2.19;93.72
59194;BME280;44967;48.598;15.650;2023-12-28T10:15:00;98621.22;;;1.98;93.37
59194;BME280;44967;48.598;15.650;2023-12-28T10:17:26;98625.56;;;1.96;93.91
59194;BME280;44967;48.598;15.650;2023-12-28T10:19:53;98625.56;;;1.95;94.72
59194;BME280;44967;48.598;15.650;2023-12-28T10:22:19;98630.75;;;1.95;94.87
59194;BME280;44967;48.598;15.650;2023-12-28T10:24:45;98628.34;;;2.13;95.23
59194;BME280;44967;48.598;15.650;2023-12-28T10:27:13;98628.97;;;1.90;95.05
59194;BME280;44967;48.598;15.650;2023-12-28T10:29:39;98625.53;;;1.92;94.81
59194;BME280;44967;48.598;15.650;2023-12-28T10:32:05;98622.19;;;2.05;95.94
59194;BME280;44967;48.598;15.650;2023-12-28T10:34:32;98607.44;;;2.08;94.65
59194;BME280;44967;48.598;15.650;2023-12-28T10:36:59;98613.63;;;2.21;94.96
59194;BME280;44967;48.598;15.650;2023-12-28T10:39:26;98619.72;;;2.26;94.34
59194;BME280;44967;48.598;15.650;2023-12-28T10:41:55;98607.63;;;2.35;94.21
59194;BME280;44967;48.598;15.650;2023-12-28T10:44:27;98607.72;;;2.45;94.05
59194;BME280;44967;48.598;15.650;2023-12-28T10:47:01;98611.25;;;2.59;94.78
59194;BME280;44967;48.598;15.650;2023-12-28T10:49:30;98606.03;;;2.57;93.87
59194;BME280;44967;48.598;15.650;2023-12-28T10:51:59;98604.31;;;2.59;93.84
59194;BME280;44967;48.598;15.650;2023-12-28T10:54:44;98600.91;;;2.71;93.89
59194;BME280;44967;48.598;15.650;2023-12-28T10:57:23;98614.84;;;2.76;93.13
59194;BME280;44967;48.598;15.650;2023-12-28T10:59:57;98600.94;;;2.78;93.10
59194;BME280;44967;48.598;15.650;2023-12-28T11:02:30;98597.47;;;2.81;92.48
59194;BME280;44967;48.598;15.650;2023-12-28T11:04:59;98592.22;;;2.78;93.00
59194;BME280;44967;48.598;15.650;2023-12-28T11:07:26;98583.56;;;2.85;92.48
59194;BME280;44967;48.598;15.650;2023-12-28T11:10:00;98593.22;;;3.00;93.57
59194;BME280;44967;48.598;15.650;2023-12-28T11:12:27;98577.56;;;3.06;93.11
59194;BME280;44967;48.598;15.650;2023-12-28T11:14:54;98574.09;;;3.13;93.13
59194;BME280;44967;48.598;15.650;2023-12-28T11:17:22;98574.09;;;3.13;93.69
59194;BME280;44967;48.598;15.650;2023-12-28T11:19:53;98564.50;;;3.06;92.99
59194;BME280;44967;48.598;15.650;2023-12-28T11:22:22;98569.75;;;3.16;92.90
59194;BME280;44967;48.598;15.650;2023-12-28T11:24:48;98573.25;;;3.17;92.53
59194;BME280;44967;48.598;15.650;2023-12-28T11:27:14;98563.56;;;2.85;91.32
59194;BME280;44967;48.598;15.650;2023-12-28T11:29:42;98562.72;;;2.87;92.69
59194;BME280;44967;48.598;15.650;2023-12-28T11:32:10;98556.63;;;2.94;92.59
59194;BME280;44967;48.598;15.650;2023-12-28T11:34:35;98549.72;;;3.00;92.71
59194;BME280;44967;48.598;15.650;2023-12-28T11:37:07;98528.81;;;3.05;93.00
59194;BME280;44967;48.598;15.650;2023-12-28T11:39:35;98533.19;;;3.00;93.09
59194;BME280;44967;48.598;15.650;2023-12-28T11:42:08;98534.84;;;2.85;93.30
59194;BME280;44967;48.598;15.650;2023-12-28T11:44:41;98527.03;;;2.85;93.83
59194;BME280;44967;48.598;15.650;2023-12-28T11:47:13;98518.34;;;2.90;94.48
59194;BME280;44967;48.598;15.650;2023-12-28T11:49:39;98517.53;;;3.07;94.29
59194;BME280;44967;48.598;15.650;2023-12-28T11:52:07;98514.91;;;3.04;94.33
59194;BME280;44967;48.598;15.650;2023-12-28T11:54:33;98534.00;;;2.93;94.41
59194;BME280;44967;48.598;15.650;2023-12-28T11:57:00;98525.34;;;2.98;94.90
59194;BME280;44967;48.598;15.650;2023-12-28T11:59:25;98515.72;;;2.87;94.89
59194;BME280;44967;48.598;15.650;2023-12-28T12:01:52;98511.38;;;2.93;95.48
59194;BME280;44967;48.598;15.650;2023-12-28T12:04:20;98495.78;;;3.10;95.45
59194;BME280;44967;48.598;15.650;2023-12-28T12:06:47;98493.19;;;3.19;95.53
59194;BME280;44967;48.598;15.650;2023-12-28T12:09:14;98495.81;;;3.25;95.20
59194;BME280;44967;48.598;15.650;2023-12-28T12:11:40;98503.63;;;3.20;94.45
59194;BME280;44967;48.598;15.650;2023-12-28T12:14:09;98494.06;;;3.19;94.47
59194;BME280;44967;48.598;15.650;2023-12-28T12:16:36;98504.50;;;3.18;94.10
59194;BME280;44967;48.598;15.650;2023-12-28T12:19:05;98500.16;;;3.26;94.57
59194;BME280;44967;48.598;15.650;2023-12-28T12:21:34;98506.28;;;3.40;94.47
59194;BME280;44967;48.598;15.650;2023-12-28T12:24:01;98506.28;;;3.46;94.65
59194;BME280;44967;48.598;15.650;2023-12-28T12:26:30;98508.91;;;3.49;94.36
59194;BME280;44967;48.598;15.650;2023-12-28T12:28:56;98504.56;;;3.50;93.92
59194;BME280;44967;48.598;15.650;2023-12-28T12:31:23;98500.19;;;3.52;93.70
59194;BME280;44967;48.598;15.650;2023-12-28T12:33:49;98511.53;;;3.55;93.91
59194;BME280;44967;48.598;15.650;2023-12-28T12:36:16;98501.94;;;3.53;93.40
59194;BME280;44967;48.598;15.650;2023-12-28T12:38:42;98501.94;;;3.48;93.54
59194;BME280;44967;48.598;15.650;2023-12-28T12:41:10;98514.13;;;3.39;93.21
59194;BME280;44967;48.598;15.650;2023-12-28T12:43:37;98501.91;;;3.30;93.91
59194;BME280;44967;48.598;15.650;2023-12-28T12:46:04;98494.94;;;3.29;93.52
59194;BME280;44967;48.598;15.650;2023-12-28T12:48:30;98492.34;;;3.23;94.58
59194;BME280;44967;48.598;15.650;2023-12-28T12:50:55;98489.75;;;3.38;94.82
59194;BME280;44967;48.598;15.650;2023-12-28T12:53:22;98494.97;;;3.41;93.76
59194;BME280;44967;48.598;15.650;2023-12-28T12:55:47;98484.50;;;3.32;93.90
59194;BME280;44967;48.598;15.650;2023-12-28T12:58:14;98477.53;;;3.40;94.40
59194;BME280;44967;48.598;15.650;2023-12-28T13:00:45;98490.63;;;3.46;94.48
59194;BME280;44967;48.598;15.650;2023-12-28T13:03:11;98495.84;;;3.43;94.13